sensor_id;sensor_type;location;lat;lon;timestamp;P1;durP1;ratioP1;P2;durP2;ratioP2
16854;SDS011;8543;54.522;18.550;2023-04-25T00:01:05;3.70;;;2.50;;
16854;SDS011;8543;54.522;18.550;2023-04-25T00:03:31;3.80;;;2.40;;
16854;SDS011;8543;54.522;18.550;2023-04-25T00:05:57;3.60;;;2.30;;
16854;SDS011;8543;54.522;18.550;2023-04-25T00:08:27;3.40;;;2.30;;
16854;SDS011;8543;54.522;18.550;2023-04-25T00:10:53;4.00;;;2.60;;
16854;SDS011;8543;54.522;18.550;2023-04-25T00:13:19;4.00;;;2.20;;
16854;SDS011;8543;54.522;18.550;2023-04-25T00:15:45;3.70;;;2.10;;
16854;SDS011;8543;54.522;18.550;2023-04-25T00:18:11;4.30;;;2.40;;
16854;SDS011;8543;54.522;18.550;2023-04-25T00:20:36;4.50;;;2.60;;
16854;SDS011;8543;54.522;18.550;2023-04-25T00:23:02;3.60;;;2.50;;
16854;SDS011;8543;54.522;18.550;2023-04-25T00:25:27;3.90;;;2.50;;
16854;SDS011;8543;54.522;18.550;2023-04-25T00:27:53;4.40;;;2.50;;
16854;SDS011;8543;54.522;18.550;2023-04-25T00:30:19;4.20;;;2.30;;
16854;SDS011;8543;54.522;18.550;2023-04-25T00:32:45;4.60;;;2.50;;
16854;SDS011;8543;54.522;18.550;2023-04-25T00:35:11;3.90;;;2.30;;
16854;SDS011;8543;54.522;18.550;2023-04-25T00:37:36;3.80;;;2.40;;
16854;SDS011;8543;54.522;18.550;2023-04-25T00:40:03;4.30;;;2.50;;
16854;SDS011;8543;54.522;18.550;2023-04-25T00:42:31;4.50;;;2.50;;
16854;SDS011;8543;54.522;18.550;2023-04-25T00:44:57;3.00;;;2.00;;
16854;SDS011;8543;54.522;18.550;2023-04-25T00:47:23;3.50;;;2.20;;
16854;SDS011;8543;54.522;18.550;2023-04-25T00:49:49;4.10;;;2.30;;
16854;SDS011;8543;54.522;18.550;2023-04-25T00:52:15;3.30;;;2.10;;
16854;SDS011;8543;54.522;18.550;2023-04-25T00:54:40;3.70;;;2.10;;
16854;SDS011;8543;54.522;18.550;2023-04-25T00:57:05;3.80;;;2.40;;
16854;SDS011;8543;54.522;18.550;2023-04-25T00:59:31;4.90;;;2.30;;
16854;SDS011;8543;54.522;18.550;2023-04-25T01:01:56;3.70;;;2.30;;
16854;SDS011;8543;54.522;18.550;2023-04-25T01:04:23;3.40;;;2.40;;
16854;SDS011;8543;54.522;18.550;2023-04-25T01:06:48;3.90;;;2.60;;
16854;SDS011;8543;54.522;18.550;2023-04-25T01:09:14;4.40;;;2.70;;
16854;SDS011;8543;54.522;18.550;2023-04-25T01:11:40;4.00;;;2.70;;
16854;SDS011;8543;54.522;18.550;2023-04-25T01:14:05;3.10;;;2.30;;
16854;SDS011;8543;54.522;18.550;2023-04-25T01:16:31;4.20;;;2.60;;
16854;SDS011;8543;54.522;18.550;2023-04-25T01:18:58;4.80;;;3.00;;
16854;SDS011;8543;54.522;18.550;2023-04-25T01:21:23;3.80;;;2.50;;
16854;SDS011;8543;54.522;18.550;2023-04-25T01:23:51;5.40;;;3.10;;
16854;SDS011;8543;54.522;18.550;2023-04-25T01:26:16;4.10;;;2.60;;
16854;SDS011;8543;54.522;18.550;2023-04-25T01:28:42;3.80;;;2.50;;
16854;SDS011;8543;54.522;18.550;2023-04-25T01:31:08;4.00;;;2.50;;
16854;SDS011;8543;54.522;18.550;2023-04-25T01:33:34;4.50;;;2.60;;
16854;SDS011;8543;54.522;18.550;2023-04-25T01:35:59;4.30;;;2.50;;
16854;SDS011;8543;54.522;18.550;2023-04-25T01:38:25;3.90;;;2.40;;
16854;SDS011;8543;54.522;18.550;2023-04-25T01:40:50;3.30;;;2.30;;
16854;SDS011;8543;54.522;18.550;2023-04-25T01:43:17;3.20;;;2.30;;
16854;SDS011;8543;54.522;18.550;2023-04-25T01:45:42;3.30;;;2.30;;
16854;SDS011;8543;54.522;18.550;2023-04-25T01:48:09;3.20;;;2.20;;
16854;SDS011;8543;54.522;18.550;2023-04-25T01:50:38;3.70;;;2.50;;
16854;SDS011;8543;54.522;18.550;2023-04-25T01:53:04;4.70;;;2.20;;
16854;SDS011;8543;54.522;18.550;2023-04-25T01:55:30;3.50;;;2.30;;
16854;SDS011;8543;54.522;18.550;2023-04-25T01:57:56;4.00;;;2.60;;
16854;SDS011;8543;54.522;18.550;2023-04-25T02:00:21;4.80;;;2.80;;
16854;SDS011;8543;54.522;18.550;2023-04-25T02:02:47;3.90;;;2.60;;
16854;SDS011;8543;54.522;18.550;2023-04-25T02:05:13;3.80;;;2.50;;
16854;SDS011;8543;54.522;18.550;2023-04-25T02:07:38;3.70;;;2.70;;
16854;SDS011;8543;54.522;18.550;2023-04-25T02:10:04;5.00;;;3.00;;
16854;SDS011;8543;54.522;18.550;2023-04-25T02:12:30;4.30;;;2.80;;
16854;SDS011;8543;54.522;18.550;2023-04-25T02:14:56;4.10;;;3.00;;
16854;SDS011;8543;54.522;18.550;2023-04-25T02:17:22;5.70;;;3.00;;
16854;SDS011;8543;54.522;18.550;2023-04-25T02:19:47;4.20;;;2.90;;
16854;SDS011;8543;54.522;18.550;2023-04-25T02:22:13;5.20;;;2.70;;
16854;SDS011;8543;54.522;18.550;2023-04-25T02:24:39;4.50;;;3.00;;
16854;SDS011;8543;54.522;18.550;2023-04-25T02:27:04;4.50;;;3.10;;
16854;SDS011;8543;54.522;18.550;2023-04-25T02:29:30;4.00;;;2.70;;
16854;SDS011;8543;54.522;18.550;2023-04-25T02:31:55;4.20;;;3.00;;
16854;SDS011;8543;54.522;18.550;2023-04-25T02:34:21;6.20;;;3.60;;
16854;SDS011;8543;54.522;18.550;2023-04-25T02:36:47;4.20;;;3.40;;
16854;SDS011;8543;54.522;18.550;2023-04-25T02:39:13;5.10;;;3.70;;
16854;SDS011;8543;54.522;18.550;2023-04-25T02:41:39;5.10;;;3.70;;
16854;SDS011;8543;54.522;18.550;2023-04-25T02:44:04;5.40;;;3.80;;
16854;SDS011;8543;54.522;18.550;2023-04-25T02:46:30;6.30;;;4.30;;
16854;SDS011;8543;54.522;18.550;2023-04-25T02:48:55;4.90;;;3.70;;
16854;SDS011;8543;54.522;18.550;2023-04-25T02:51:21;5.00;;;4.00;;
16854;SDS011;8543;54.522;18.550;2023-04-25T02:53:46;6.50;;;3.80;;
16854;SDS011;8543;54.522;18.550;2023-04-25T02:56:11;5.00;;;4.00;;
16854;SDS011;8543;54.522;18.550;2023-04-25T02:58:37;6.20;;;3.80;;
16854;SDS011;8543;54.522;18.550;2023-04-25T03:01:02;5.60;;;3.60;;
16854;SDS011;8543;54.522;18.550;2023-04-25T03:03:27;5.30;;;3.80;;
16854;SDS011;8543;54.522;18.550;2023-04-25T03:05:53;6.00;;;4.20;;
16854;SDS011;8543;54.522;18.550;2023-04-25T03:08:18;5.50;;;3.90;;
16854;SDS011;8543;54.522;18.550;2023-04-25T03:10:44;5.60;;;4.30;;
16854;SDS011;8543;54.522;18.550;2023-04-25T03:13:10;4.70;;;4.00;;
16854;SDS011;8543;54.522;18.550;2023-04-25T03:15:36;5.40;;;4.20;;
16854;SDS011;8543;54.522;18.550;2023-04-25T03:18:02;5.40;;;4.40;;
16854;SDS011;8543;54.522;18.550;2023-04-25T03:20:28;5.50;;;4.20;;
16854;SDS011;8543;54.522;18.550;2023-04-25T03:22:53;5.90;;;4.30;;
16854;SDS011;8543;54.522;18.550;2023-04-25T03:25:19;6.00;;;5.00;;
16854;SDS011;8543;54.522;18.550;2023-04-25T03:27:44;6.00;;;4.70;;
16854;SDS011;8543;54.522;18.550;2023-04-25T03:30:10;6.90;;;4.70;;
16854;SDS011;8543;54.522;18.550;2023-04-25T03:32:36;7.60;;;5.20;;
16854;SDS011;8543;54.522;18.550;2023-04-25T03:35:01;6.50;;;5.00;;
16854;SDS011;8543;54.522;18.550;2023-04-25T03:37:26;5.80;;;4.70;;
16854;SDS011;8543;54.522;18.550;2023-04-25T03:39:52;6.80;;;4.60;;
16854;SDS011;8543;54.522;18.550;2023-04-25T03:42:17;5.30;;;4.40;;
16854;SDS011;8543;54.522;18.550;2023-04-25T03:44:43;6.10;;;4.60;;
16854;SDS011;8543;54.522;18.550;2023-04-25T03:47:08;6.00;;;4.50;;
16854;SDS011;8543;54.522;18.550;2023-04-25T03:49:34;5.80;;;4.40;;
16854;SDS011;8543;54.522;18.550;2023-04-25T03:52:00;6.50;;;4.80;;
16854;SDS011;8543;54.522;18.550;2023-04-25T03:54:26;5.40;;;4.10;;
16854;SDS011;8543;54.522;18.550;2023-04-25T03:56:51;7.50;;;4.90;;
16854;SDS011;8543;54.522;18.550;2023-04-25T03:59:17;6.10;;;5.00;;
16854;SDS011;8543;54.522;18.550;2023-04-25T04:01:42;7.40;;;5.40;;
16854;SDS011;8543;54.522;18.550;2023-04-25T04:04:08;5.90;;;4.70;;
16854;SDS011;8543;54.522;18.550;2023-04-25T04:06:33;5.70;;;4.40;;
16854;SDS011;8543;54.522;18.550;2023-04-25T04:08:58;6.60;;;4.00;;
16854;SDS011;8543;54.522;18.550;2023-04-25T04:11:24;5.60;;;4.00;;
16854;SDS011;8543;54.522;18.550;2023-04-25T04:13:49;5.90;;;4.20;;
16854;SDS011;8543;54.522;18.550;2023-04-25T04:16:15;6.70;;;4.30;;
16854;SDS011;8543;54.522;18.550;2023-04-25T04:18:40;6.10;;;3.90;;
16854;SDS011;8543;54.522;18.550;2023-04-25T04:21:05;6.20;;;4.20;;
16854;SDS011;8543;54.522;18.550;2023-04-25T04:23:31;5.10;;;4.00;;
16854;SDS011;8543;54.522;18.550;2023-04-25T04:25:56;5.40;;;3.90;;
16854;SDS011;8543;54.522;18.550;2023-04-25T04:28:22;6.50;;;4.10;;
16854;SDS011;8543;54.522;18.550;2023-04-25T04:30:47;5.40;;;3.90;;
16854;SDS011;8543;54.522;18.550;2023-04-25T04:33:16;5.70;;;4.20;;
16854;SDS011;8543;54.522;18.550;2023-04-25T04:35:44;5.00;;;3.70;;
16854;SDS011;8543;54.522;18.550;2023-04-25T04:38:09;7.00;;;3.90;;
16854;SDS011;8543;54.522;18.550;2023-04-25T04:40:36;5.50;;;4.00;;
16854;SDS011;8543;54.522;18.550;2023-04-25T04:43:02;5.00;;;3.80;;
16854;SDS011;8543;54.522;18.550;2023-04-25T04:45:28;5.90;;;3.80;;
16854;SDS011;8543;54.522;18.550;2023-04-25T04:47:54;5.70;;;3.80;;
16854;SDS011;8543;54.522;18.550;2023-04-25T04:50:20;6.40;;;4.10;;
16854;SDS011;8543;54.522;18.550;2023-04-25T04:52:45;5.70;;;4.30;;
16854;SDS011;8543;54.522;18.550;2023-04-25T04:55:11;6.20;;;4.30;;
16854;SDS011;8543;54.522;18.550;2023-04-25T04:57:36;7.20;;;4.50;;
16854;SDS011;8543;54.522;18.550;2023-04-25T05:00:04;5.50;;;4.00;;
16854;SDS011;8543;54.522;18.550;2023-04-25T05:02:35;5.60;;;4.20;;
16854;SDS011;8543;54.522;18.550;2023-04-25T05:05:01;5.90;;;4.10;;
16854;SDS011;8543;54.522;18.550;2023-04-25T05:07:27;5.10;;;3.80;;
16854;SDS011;8543;54.522;18.550;2023-04-25T05:09:52;7.10;;;4.30;;
16854;SDS011;8543;54.522;18.550;2023-04-25T05:12:18;7.60;;;4.80;;
16854;SDS011;8543;54.522;18.550;2023-04-25T05:14:43;6.10;;;4.50;;
16854;SDS011;8543;54.522;18.550;2023-04-25T05:17:08;6.20;;;4.00;;
16854;SDS011;8543;54.522;18.550;2023-04-25T05:19:34;6.60;;;4.10;;
16854;SDS011;8543;54.522;18.550;2023-04-25T05:21:59;6.40;;;5.00;;
16854;SDS011;8543;54.522;18.550;2023-04-25T05:24:25;7.00;;;4.50;;
16854;SDS011;8543;54.522;18.550;2023-04-25T05:26:50;6.40;;;4.50;;
16854;SDS011;8543;54.522;18.550;2023-04-25T05:29:16;6.00;;;4.20;;
16854;SDS011;8543;54.522;18.550;2023-04-25T05:31:41;5.90;;;4.20;;
16854;SDS011;8543;54.522;18.550;2023-04-25T05:34:06;5.80;;;3.90;;
16854;SDS011;8543;54.522;18.550;2023-04-25T05:36:32;7.60;;;4.40;;
16854;SDS011;8543;54.522;18.550;2023-04-25T05:38:57;5.70;;;4.40;;
16854;SDS011;8543;54.522;18.550;2023-04-25T05:41:23;6.40;;;4.00;;
16854;SDS011;8543;54.522;18.550;2023-04-25T05:43:48;6.20;;;4.60;;
16854;SDS011;8543;54.522;18.550;2023-04-25T05:46:14;6.10;;;4.50;;
16854;SDS011;8543;54.522;18.550;2023-04-25T05:48:42;6.00;;;4.50;;
16854;SDS011;8543;54.522;18.550;2023-04-25T05:51:08;6.10;;;4.30;;
16854;SDS011;8543;54.522;18.550;2023-04-25T05:53:33;6.40;;;4.20;;
16854;SDS011;8543;54.522;18.550;2023-04-25T05:55:59;5.70;;;4.40;;
16854;SDS011;8543;54.522;18.550;2023-04-25T05:58:24;5.80;;;4.00;;
16854;SDS011;8543;54.522;18.550;2023-04-25T06:00:50;5.70;;;3.90;;
16854;SDS011;8543;54.522;18.550;2023-04-25T06:03:16;5.90;;;3.80;;
16854;SDS011;8543;54.522;18.550;2023-04-25T06:05:42;5.10;;;3.80;;
16854;SDS011;8543;54.522;18.550;2023-04-25T06:08:08;6.50;;;3.40;;
16854;SDS011;8543;54.522;18.550;2023-04-25T06:10:35;6.10;;;3.60;;
16854;SDS011;8543;54.522;18.550;2023-04-25T06:13:01;5.80;;;3.70;;
16854;SDS011;8543;54.522;18.550;2023-04-25T06:15:26;6.70;;;3.80;;
16854;SDS011;8543;54.522;18.550;2023-04-25T06:17:52;6.80;;;3.90;;
16854;SDS011;8543;54.522;18.550;2023-04-25T06:20:17;5.60;;;3.40;;
16854;SDS011;8543;54.522;18.550;2023-04-25T06:22:43;6.30;;;3.50;;
16854;SDS011;8543;54.522;18.550;2023-04-25T06:25:08;8.90;;;3.90;;
16854;SDS011;8543;54.522;18.550;2023-04-25T06:27:34;5.50;;;3.40;;
16854;SDS011;8543;54.522;18.550;2023-04-25T06:29:59;5.20;;;3.60;;
16854;SDS011;8543;54.522;18.550;2023-04-25T06:32:25;5.20;;;3.60;;
16854;SDS011;8543;54.522;18.550;2023-04-25T06:34:52;6.50;;;3.40;;
16854;SDS011;8543;54.522;18.550;2023-04-25T06:37:18;5.30;;;3.90;;
16854;SDS011;8543;54.522;18.550;2023-04-25T06:39:43;6.30;;;3.20;;
16854;SDS011;8543;54.522;18.550;2023-04-25T06:42:08;4.80;;;3.40;;
16854;SDS011;8543;54.522;18.550;2023-04-25T06:44:35;5.20;;;3.30;;
16854;SDS011;8543;54.522;18.550;2023-04-25T06:47:00;5.00;;;3.10;;
16854;SDS011;8543;54.522;18.550;2023-04-25T06:49:26;6.20;;;3.30;;
16854;SDS011;8543;54.522;18.550;2023-04-25T06:51:51;5.70;;;3.30;;
16854;SDS011;8543;54.522;18.550;2023-04-25T06:54:17;5.20;;;3.00;;
16854;SDS011;8543;54.522;18.550;2023-04-25T06:56:42;5.60;;;3.40;;
16854;SDS011;8543;54.522;18.550;2023-04-25T06:59:08;6.00;;;3.40;;
16854;SDS011;8543;54.522;18.550;2023-04-25T07:01:34;5.10;;;3.30;;
16854;SDS011;8543;54.522;18.550;2023-04-25T07:04:00;6.80;;;3.70;;
16854;SDS011;8543;54.522;18.550;2023-04-25T07:06:25;7.30;;;3.80;;
16854;SDS011;8543;54.522;18.550;2023-04-25T07:08:52;5.50;;;3.10;;
16854;SDS011;8543;54.522;18.550;2023-04-25T07:11:18;6.30;;;3.30;;
16854;SDS011;8543;54.522;18.550;2023-04-25T07:13:44;4.80;;;3.20;;
16854;SDS011;8543;54.522;18.550;2023-04-25T07:16:09;7.00;;;3.50;;
16854;SDS011;8543;54.522;18.550;2023-04-25T07:18:34;7.20;;;3.30;;
16854;SDS011;8543;54.522;18.550;2023-04-25T07:21:00;6.00;;;3.10;;
16854;SDS011;8543;54.522;18.550;2023-04-25T07:23:25;5.90;;;3.50;;
16854;SDS011;8543;54.522;18.550;2023-04-25T07:25:51;4.90;;;3.40;;
16854;SDS011;8543;54.522;18.550;2023-04-25T07:28:16;5.50;;;3.30;;
16854;SDS011;8543;54.522;18.550;2023-04-25T07:30:42;4.50;;;3.30;;
16854;SDS011;8543;54.522;18.550;2023-04-25T07:33:08;6.10;;;3.50;;
16854;SDS011;8543;54.522;18.550;2023-04-25T07:35:33;6.20;;;3.50;;
16854;SDS011;8543;54.522;18.550;2023-04-25T07:37:59;5.20;;;3.50;;
16854;SDS011;8543;54.522;18.550;2023-04-25T07:40:25;5.20;;;3.60;;
16854;SDS011;8543;54.522;18.550;2023-04-25T07:42:50;6.60;;;3.90;;
16854;SDS011;8543;54.522;18.550;2023-04-25T07:45:15;4.60;;;3.50;;
16854;SDS011;8543;54.522;18.550;2023-04-25T07:47:41;4.90;;;3.00;;
16854;SDS011;8543;54.522;18.550;2023-04-25T07:50:07;8.80;;;4.20;;
16854;SDS011;8543;54.522;18.550;2023-04-25T07:52:33;6.20;;;3.30;;
16854;SDS011;8543;54.522;18.550;2023-04-25T07:54:58;4.70;;;3.10;;
16854;SDS011;8543;54.522;18.550;2023-04-25T07:57:23;4.90;;;2.90;;
16854;SDS011;8543;54.522;18.550;2023-04-25T07:59:49;4.50;;;2.60;;
16854;SDS011;8543;54.522;18.550;2023-04-25T08:02:15;6.40;;;2.70;;
16854;SDS011;8543;54.522;18.550;2023-04-25T08:04:40;3.80;;;2.50;;
16854;SDS011;8543;54.522;18.550;2023-04-25T08:07:06;4.30;;;2.50;;
16854;SDS011;8543;54.522;18.550;2023-04-25T08:09:31;6.00;;;3.20;;
16854;SDS011;8543;54.522;18.550;2023-04-25T08:12:01;5.10;;;2.90;;
16854;SDS011;8543;54.522;18.550;2023-04-25T08:14:27;4.20;;;2.70;;
16854;SDS011;8543;54.522;18.550;2023-04-25T08:16:56;5.10;;;2.70;;
16854;SDS011;8543;54.522;18.550;2023-04-25T08:19:21;4.80;;;2.50;;
16854;SDS011;8543;54.522;18.550;2023-04-25T08:21:47;4.80;;;2.40;;
16854;SDS011;8543;54.522;18.550;2023-04-25T08:24:12;3.90;;;2.50;;
16854;SDS011;8543;54.522;18.550;2023-04-25T08:26:37;3.80;;;2.30;;
16854;SDS011;8543;54.522;18.550;2023-04-25T08:29:04;5.00;;;2.60;;
16854;SDS011;8543;54.522;18.550;2023-04-25T08:31:30;4.90;;;2.90;;
16854;SDS011;8543;54.522;18.550;2023-04-25T08:33:55;4.90;;;2.50;;
16854;SDS011;8543;54.522;18.550;2023-04-25T08:36:21;4.60;;;2.60;;
16854;SDS011;8543;54.522;18.550;2023-04-25T08:38:46;4.70;;;2.80;;
16854;SDS011;8543;54.522;18.550;2023-04-25T08:41:12;3.60;;;2.40;;
16854;SDS011;8543;54.522;18.550;2023-04-25T08:43:38;5.40;;;2.80;;
16854;SDS011;8543;54.522;18.550;2023-04-25T08:46:07;6.30;;;2.40;;
16854;SDS011;8543;54.522;18.550;2023-04-25T08:48:33;3.40;;;2.30;;
16854;SDS011;8543;54.522;18.550;2023-04-25T08:51:02;4.30;;;2.60;;
16854;SDS011;8543;54.522;18.550;2023-04-25T08:53:30;4.40;;;2.40;;
16854;SDS011;8543;54.522;18.550;2023-04-25T08:55:57;4.50;;;2.50;;
16854;SDS011;8543;54.522;18.550;2023-04-25T08:58:23;5.30;;;2.40;;
16854;SDS011;8543;54.522;18.550;2023-04-25T09:00:49;4.80;;;2.60;;
16854;SDS011;8543;54.522;18.550;2023-04-25T09:03:16;4.10;;;2.60;;
16854;SDS011;8543;54.522;18.550;2023-04-25T09:05:42;5.90;;;2.50;;
16854;SDS011;8543;54.522;18.550;2023-04-25T09:08:07;4.80;;;2.60;;
16854;SDS011;8543;54.522;18.550;2023-04-25T09:10:33;5.40;;;2.40;;
16854;SDS011;8543;54.522;18.550;2023-04-25T09:13:09;5.60;;;2.80;;
16854;SDS011;8543;54.522;18.550;2023-04-25T09:15:50;4.80;;;2.30;;
16854;SDS011;8543;54.522;18.550;2023-04-25T09:18:27;3.70;;;2.60;;
16854;SDS011;8543;54.522;18.550;2023-04-25T09:21:07;5.20;;;2.50;;
16854;SDS011;8543;54.522;18.550;2023-04-25T09:26:25;4.60;;;2.60;;
16854;SDS011;8543;54.522;18.550;2023-04-25T09:28:57;5.60;;;3.40;;
16854;SDS011;8543;54.522;18.550;2023-04-25T09:31:31;4.60;;;2.70;;
16854;SDS011;8543;54.522;18.550;2023-04-25T09:34:01;5.20;;;3.10;;
16854;SDS011;8543;54.522;18.550;2023-04-25T09:36:27;4.70;;;2.60;;
16854;SDS011;8543;54.522;18.550;2023-04-25T09:38:53;5.90;;;3.00;;
16854;SDS011;8543;54.522;18.550;2023-04-25T09:41:22;5.40;;;2.90;;
16854;SDS011;8543;54.522;18.550;2023-04-25T09:43:48;4.30;;;2.60;;
16854;SDS011;8543;54.522;18.550;2023-04-25T09:46:14;4.30;;;3.00;;
16854;SDS011;8543;54.522;18.550;2023-04-25T09:48:40;4.50;;;2.70;;
16854;SDS011;8543;54.522;18.550;2023-04-25T09:51:13;3.90;;;2.40;;
16854;SDS011;8543;54.522;18.550;2023-04-25T09:53:40;4.80;;;2.60;;
16854;SDS011;8543;54.522;18.550;2023-04-25T09:56:10;3.30;;;2.20;;
16854;SDS011;8543;54.522;18.550;2023-04-25T09:58:37;3.70;;;2.20;;
16854;SDS011;8543;54.522;18.550;2023-04-25T10:01:06;3.90;;;2.40;;
16854;SDS011;8543;54.522;18.550;2023-04-25T10:03:33;6.30;;;2.60;;
16854;SDS011;8543;54.522;18.550;2023-04-25T10:06:00;4.40;;;2.60;;
16854;SDS011;8543;54.522;18.550;2023-04-25T10:08:31;4.20;;;2.70;;
16854;SDS011;8543;54.522;18.550;2023-04-25T10:11:02;4.60;;;2.50;;
16854;SDS011;8543;54.522;18.550;2023-04-25T10:13:29;3.90;;;2.60;;
16854;SDS011;8543;54.522;18.550;2023-04-25T10:15:59;3.90;;;2.50;;
16854;SDS011;8543;54.522;18.550;2023-04-25T10:18:26;5.40;;;2.90;;
16854;SDS011;8543;54.522;18.550;2023-04-25T10:20:56;4.60;;;3.00;;
16854;SDS011;8543;54.522;18.550;2023-04-25T10:23:23;4.30;;;2.70;;
16854;SDS011;8543;54.522;18.550;2023-04-25T10:25:52;3.40;;;2.40;;
16854;SDS011;8543;54.522;18.550;2023-04-25T10:28:19;3.70;;;2.10;;
16854;SDS011;8543;54.522;18.550;2023-04-25T10:33:32;4.10;;;2.10;;
16854;SDS011;8543;54.522;18.550;2023-04-25T10:36:07;3.10;;;2.10;;
16854;SDS011;8543;54.522;18.550;2023-04-25T10:38:43;4.20;;;2.20;;
16854;SDS011;8543;54.522;18.550;2023-04-25T10:41:10;2.90;;;2.20;;
16854;SDS011;8543;54.522;18.550;2023-04-25T10:43:37;5.20;;;2.50;;
16854;SDS011;8543;54.522;18.550;2023-04-25T10:46:13;4.70;;;2.40;;
16854;SDS011;8543;54.522;18.550;2023-04-25T10:48:43;4.40;;;2.70;;
16854;SDS011;8543;54.522;18.550;2023-04-25T10:51:23;4.20;;;2.50;;
16854;SDS011;8543;54.522;18.550;2023-04-25T10:56:32;4.20;;;2.40;;
16854;SDS011;8543;54.522;18.550;2023-04-25T10:59:18;5.80;;;2.70;;
16854;SDS011;8543;54.522;18.550;2023-04-25T11:04:23;4.70;;;2.90;;
16854;SDS011;8543;54.522;18.550;2023-04-25T11:09:15;5.10;;;2.80;;
16854;SDS011;8543;54.522;18.550;2023-04-25T11:11:41;5.80;;;2.70;;
16854;SDS011;8543;54.522;18.550;2023-04-25T11:14:06;5.80;;;2.60;;
16854;SDS011;8543;54.522;18.550;2023-04-25T11:16:32;5.00;;;2.50;;
16854;SDS011;8543;54.522;18.550;2023-04-25T11:18:57;6.00;;;2.70;;
16854;SDS011;8543;54.522;18.550;2023-04-25T11:21:25;4.80;;;2.60;;
16854;SDS011;8543;54.522;18.550;2023-04-25T11:23:52;6.90;;;2.50;;
16854;SDS011;8543;54.522;18.550;2023-04-25T11:26:19;5.50;;;2.90;;
16854;SDS011;8543;54.522;18.550;2023-04-25T11:28:45;7.20;;;2.90;;
16854;SDS011;8543;54.522;18.550;2023-04-25T11:31:12;6.10;;;3.00;;
16854;SDS011;8543;54.522;18.550;2023-04-25T11:33:37;5.10;;;3.50;;
16854;SDS011;8543;54.522;18.550;2023-04-25T11:36:03;6.70;;;3.60;;
16854;SDS011;8543;54.522;18.550;2023-04-25T11:38:28;4.70;;;3.20;;
16854;SDS011;8543;54.522;18.550;2023-04-25T11:40:54;6.50;;;3.80;;
16854;SDS011;8543;54.522;18.550;2023-04-25T11:43:20;9.90;;;3.70;;
16854;SDS011;8543;54.522;18.550;2023-04-25T11:45:47;6.50;;;3.30;;
16854;SDS011;8543;54.522;18.550;2023-04-25T11:48:17;5.30;;;3.40;;
16854;SDS011;8543;54.522;18.550;2023-04-25T11:50:43;5.20;;;3.20;;
16854;SDS011;8543;54.522;18.550;2023-04-25T11:53:09;6.70;;;3.50;;
16854;SDS011;8543;54.522;18.550;2023-04-25T11:55:35;5.80;;;3.40;;
16854;SDS011;8543;54.522;18.550;2023-04-25T11:58:02;5.80;;;3.40;;
16854;SDS011;8543;54.522;18.550;2023-04-25T12:00:29;7.80;;;4.00;;
16854;SDS011;8543;54.522;18.550;2023-04-25T12:02:55;7.20;;;4.00;;
16854;SDS011;8543;54.522;18.550;2023-04-25T12:05:26;5.70;;;3.60;;
16854;SDS011;8543;54.522;18.550;2023-04-25T12:07:53;5.80;;;3.90;;
16854;SDS011;8543;54.522;18.550;2023-04-25T12:10:19;5.00;;;3.40;;
16854;SDS011;8543;54.522;18.550;2023-04-25T12:12:46;6.80;;;3.60;;
16854;SDS011;8543;54.522;18.550;2023-04-25T12:15:13;6.40;;;3.60;;
16854;SDS011;8543;54.522;18.550;2023-04-25T12:17:47;7.40;;;3.90;;
16854;SDS011;8543;54.522;18.550;2023-04-25T12:20:21;5.40;;;3.90;;
16854;SDS011;8543;54.522;18.550;2023-04-25T12:22:49;6.30;;;4.60;;
16854;SDS011;8543;54.522;18.550;2023-04-25T12:25:34;6.00;;;3.90;;
16854;SDS011;8543;54.522;18.550;2023-04-25T12:28:10;5.10;;;3.50;;
16854;SDS011;8543;54.522;18.550;2023-04-25T12:30:55;7.50;;;4.30;;
16854;SDS011;8543;54.522;18.550;2023-04-25T12:33:21;5.50;;;3.90;;
16854;SDS011;8543;54.522;18.550;2023-04-25T12:35:47;6.00;;;4.10;;
16854;SDS011;8543;54.522;18.550;2023-04-25T12:38:26;7.80;;;4.40;;
16854;SDS011;8543;54.522;18.550;2023-04-25T12:40:53;5.50;;;4.10;;
16854;SDS011;8543;54.522;18.550;2023-04-25T12:43:19;5.90;;;3.80;;
16854;SDS011;8543;54.522;18.550;2023-04-25T12:45:45;6.00;;;3.90;;
16854;SDS011;8543;54.522;18.550;2023-04-25T12:48:13;7.30;;;5.10;;
16854;SDS011;8543;54.522;18.550;2023-04-25T12:50:38;6.90;;;4.50;;
16854;SDS011;8543;54.522;18.550;2023-04-25T12:53:03;6.40;;;4.90;;
16854;SDS011;8543;54.522;18.550;2023-04-25T12:55:29;5.40;;;3.80;;
16854;SDS011;8543;54.522;18.550;2023-04-25T12:57:54;8.80;;;4.60;;
16854;SDS011;8543;54.522;18.550;2023-04-25T13:00:20;6.70;;;4.20;;
16854;SDS011;8543;54.522;18.550;2023-04-25T13:02:45;5.50;;;4.20;;
16854;SDS011;8543;54.522;18.550;2023-04-25T13:05:12;6.20;;;4.30;;
16854;SDS011;8543;54.522;18.550;2023-04-25T13:07:38;7.90;;;5.00;;
16854;SDS011;8543;54.522;18.550;2023-04-25T13:10:03;6.10;;;4.60;;
16854;SDS011;8543;54.522;18.550;2023-04-25T13:12:30;7.80;;;4.60;;
16854;SDS011;8543;54.522;18.550;2023-04-25T13:14:56;6.60;;;4.40;;
16854;SDS011;8543;54.522;18.550;2023-04-25T13:17:22;6.80;;;4.40;;
16854;SDS011;8543;54.522;18.550;2023-04-25T13:19:47;6.60;;;4.50;;
16854;SDS011;8543;54.522;18.550;2023-04-25T13:22:13;6.70;;;4.60;;
16854;SDS011;8543;54.522;18.550;2023-04-25T13:24:40;6.70;;;4.20;;
16854;SDS011;8543;54.522;18.550;2023-04-25T13:27:05;8.20;;;4.70;;
16854;SDS011;8543;54.522;18.550;2023-04-25T13:29:31;7.00;;;4.60;;
16854;SDS011;8543;54.522;18.550;2023-04-25T13:31:59;5.60;;;4.00;;
16854;SDS011;8543;54.522;18.550;2023-04-25T13:34:25;8.10;;;4.50;;
16854;SDS011;8543;54.522;18.550;2023-04-25T13:36:50;6.40;;;4.10;;
16854;SDS011;8543;54.522;18.550;2023-04-25T13:39:16;7.30;;;4.70;;
16854;SDS011;8543;54.522;18.550;2023-04-25T13:41:41;7.20;;;4.80;;
16854;SDS011;8543;54.522;18.550;2023-04-25T13:44:07;6.90;;;4.90;;
16854;SDS011;8543;54.522;18.550;2023-04-25T13:46:32;6.80;;;4.40;;
16854;SDS011;8543;54.522;18.550;2023-04-25T13:48:57;7.70;;;4.50;;
16854;SDS011;8543;54.522;18.550;2023-04-25T13:51:23;6.60;;;4.40;;
16854;SDS011;8543;54.522;18.550;2023-04-25T13:53:48;6.40;;;4.20;;
16854;SDS011;8543;54.522;18.550;2023-04-25T13:56:14;7.50;;;4.80;;
16854;SDS011;8543;54.522;18.550;2023-04-25T13:58:40;7.90;;;5.30;;
16854;SDS011;8543;54.522;18.550;2023-04-25T14:01:05;6.10;;;4.20;;
16854;SDS011;8543;54.522;18.550;2023-04-25T14:03:30;6.40;;;4.30;;
16854;SDS011;8543;54.522;18.550;2023-04-25T14:05:56;5.70;;;3.80;;
16854;SDS011;8543;54.522;18.550;2023-04-25T14:08:22;6.30;;;3.80;;
16854;SDS011;8543;54.522;18.550;2023-04-25T14:10:47;5.50;;;4.00;;
16854;SDS011;8543;54.522;18.550;2023-04-25T14:13:12;7.30;;;4.20;;
16854;SDS011;8543;54.522;18.550;2023-04-25T14:15:38;5.80;;;4.00;;
16854;SDS011;8543;54.522;18.550;2023-04-25T14:18:03;7.70;;;4.90;;
16854;SDS011;8543;54.522;18.550;2023-04-25T14:20:29;8.80;;;5.30;;
16854;SDS011;8543;54.522;18.550;2023-04-25T14:22:54;6.40;;;4.50;;
16854;SDS011;8543;54.522;18.550;2023-04-25T14:25:22;9.20;;;5.00;;
16854;SDS011;8543;54.522;18.550;2023-04-25T14:27:48;6.90;;;4.60;;
16854;SDS011;8543;54.522;18.550;2023-04-25T14:30:17;7.80;;;5.00;;
16854;SDS011;8543;54.522;18.550;2023-04-25T14:32:43;8.80;;;5.50;;
16854;SDS011;8543;54.522;18.550;2023-04-25T14:35:09;9.00;;;4.50;;
16854;SDS011;8543;54.522;18.550;2023-04-25T14:37:35;9.10;;;4.60;;
16854;SDS011;8543;54.522;18.550;2023-04-25T14:40:00;7.80;;;3.60;;
16854;SDS011;8543;54.522;18.550;2023-04-25T14:42:26;10.80;;;3.40;;
16854;SDS011;8543;54.522;18.550;2023-04-25T14:44:51;6.20;;;2.80;;
16854;SDS011;8543;54.522;18.550;2023-04-25T14:47:17;8.80;;;3.40;;
16854;SDS011;8543;54.522;18.550;2023-04-25T14:49:42;7.00;;;3.00;;
16854;SDS011;8543;54.522;18.550;2023-04-25T14:52:08;7.10;;;3.30;;
16854;SDS011;8543;54.522;18.550;2023-04-25T14:54:34;8.00;;;3.40;;
16854;SDS011;8543;54.522;18.550;2023-04-25T14:56:59;7.60;;;3.80;;